sensor_id;sensor_type;location;lat;lon;timestamp;pressure;altitude;pressure_sealevel;temperature;humidity
58769;BME280;44536;47.474;19.056;2023-05-10T00:02:28;100729.97;;;12.01;73.97
58769;BME280;44536;47.474;19.056;2023-05-10T00:05:32;100724.87;;;11.87;74.70
58769;BME280;44536;47.474;19.056;2023-05-10T00:08:34;100718.63;;;11.88;74.90
58769;BME280;44536;47.474;19.056;2023-05-10T00:11:37;100723.47;;;11.94;74.68
58769;BME280;44536;47.474;19.056;2023-05-10T00:14:40;100717.88;;;11.86;75.05
58769;BME280;44536;47.474;19.056;2023-05-10T00:17:43;100711.59;;;11.87;75.27
58769;BME280;44536;47.474;19.056;2023-05-10T00:20:45;100716.34;;;11.71;76.05
58769;BME280;44536;47.474;19.056;2023-05-10T00:23:51;100712.69;;;11.60;76.78
58769;BME280;44536;47.474;19.056;2023-05-10T00:26:53;100708.31;;;11.59;77.08
58769;BME280;44536;47.474;19.056;2023-05-10T00:29:56;100705.78;;;11.58;76.78
58769;BME280;44536;47.474;19.056;2023-05-10T00:32:58;100706.75;;;11.57;77.07
58769;BME280;44536;47.474;19.056;2023-05-10T00:36:00;100714.78;;;11.44;77.74
58769;BME280;44536;47.474;19.056;2023-05-10T00:39:03;100706.44;;;11.38;78.14
58769;BME280;44536;47.474;19.056;2023-05-10T00:42:05;100698.28;;;11.28;78.80
58769;BME280;44536;47.474;19.056;2023-05-10T00:45:08;100707.78;;;11.19;79.89
58769;BME280;44536;47.474;19.056;2023-05-10T00:48:11;100711.56;;;11.28;79.49
58769;BME280;44536;47.474;19.056;2023-05-10T00:51:13;100715.34;;;11.13;79.87
58769;BME280;44536;47.474;19.056;2023-05-10T00:54:16;100711.00;;;11.12;80.04
58769;BME280;44536;47.474;19.056;2023-05-10T00:57:19;100701.66;;;11.06;80.35
58769;BME280;44536;47.474;19.056;2023-05-10T01:00:21;100703.75;;;10.90;81.61
58769;BME280;44536;47.474;19.056;2023-05-10T01:03:25;100706.12;;;11.06;81.09
58769;BME280;44536;47.474;19.056;2023-05-10T01:06:27;100696.69;;;11.02;81.29
58769;BME280;44536;47.474;19.056;2023-05-10T01:09:30;100698.03;;;10.83;82.53
58769;BME280;44536;47.474;19.056;2023-05-10T01:12:39;100699.97;;;10.69;83.64
58769;BME280;44536;47.474;19.056;2023-05-10T01:15:42;100701.44;;;10.73;83.56
58769;BME280;44536;47.474;19.056;2023-05-10T01:18:45;100700.38;;;10.75;83.45
58769;BME280;44536;47.474;19.056;2023-05-10T01:25:44;100695.94;;;11.00;82.42
58769;BME280;44536;47.474;19.056;2023-05-10T01:28:58;100696.44;;;11.17;81.94
58769;BME280;44536;47.474;19.056;2023-05-10T01:32:19;100691.97;;;11.18;81.64
58769;BME280;44536;47.474;19.056;2023-05-10T01:35:26;100685.59;;;11.20;81.46
58769;BME280;44536;47.474;19.056;2023-05-10T01:48:16;100688.69;;;11.14;82.08
58769;BME280;44536;47.474;19.056;2023-05-10T01:51:23;100694.22;;;11.11;82.38
58769;BME280;44536;47.474;19.056;2023-05-10T01:54:28;100688.28;;;11.08;82.78
58769;BME280;44536;47.474;19.056;2023-05-10T01:57:36;100683.59;;;11.11;82.49
58769;BME280;44536;47.474;19.056;2023-05-10T02:00:43;100687.09;;;11.12;82.43
58769;BME280;44536;47.474;19.056;2023-05-10T02:03:47;100684.22;;;11.15;83.02
58769;BME280;44536;47.474;19.056;2023-05-10T02:06:53;100682.31;;;11.17;82.47
58769;BME280;44536;47.474;19.056;2023-05-10T02:09:56;100686.31;;;11.22;81.88
58769;BME280;44536;47.474;19.056;2023-05-10T02:13:00;100678.75;;;11.29;81.09
58769;BME280;44536;47.474;19.056;2023-05-10T02:16:05;100675.66;;;11.35;80.69
58769;BME280;44536;47.474;19.056;2023-05-10T02:19:08;100672.25;;;11.33;80.07
58769;BME280;44536;47.474;19.056;2023-05-10T02:22:12;100671.63;;;11.30;80.41
58769;BME280;44536;47.474;19.056;2023-05-10T02:25:17;100673.91;;;11.23;80.69
58769;BME280;44536;47.474;19.056;2023-05-10T02:28:21;100666.09;;;11.33;79.38
58769;BME280;44536;47.474;19.056;2023-05-10T02:31:24;100661.75;;;11.32;79.14
58769;BME280;44536;47.474;19.056;2023-05-10T02:34:27;100662.59;;;11.32;78.90
58769;BME280;44536;47.474;19.056;2023-05-10T02:37:30;100667.56;;;11.37;78.77
58769;BME280;44536;47.474;19.056;2023-05-10T02:40:35;100656.34;;;11.33;79.47
58769;BME280;44536;47.474;19.056;2023-05-10T02:43:39;100660.44;;;11.37;78.93
58769;BME280;44536;47.474;19.056;2023-05-10T02:46:42;100660.22;;;11.40;78.74
58769;BME280;44536;47.474;19.056;2023-05-10T02:49:45;100666.78;;;11.58;78.04
58769;BME280;44536;47.474;19.056;2023-05-10T02:52:55;100672.34;;;11.55;77.44
58769;BME280;44536;47.474;19.056;2023-05-10T02:56:01;100669.78;;;11.54;77.52
58769;BME280;44536;47.474;19.056;2023-05-10T02:59:06;100673.19;;;11.56;76.76
58769;BME280;44536;47.474;19.056;2023-05-10T03:02:09;100675.31;;;11.51;77.12
58769;BME280;44536;47.474;19.056;2023-05-10T03:05:12;100671.69;;;11.41;76.74
58769;BME280;44536;47.474;19.056;2023-05-10T03:08:14;100666.09;;;11.33;77.22
58769;BME280;44536;47.474;19.056;2023-05-10T03:15:55;100668.13;;;11.05;78.34
58769;BME280;44536;47.474;19.056;2023-05-10T03:19:17;100673.59;;;11.15;77.52
58769;BME280;44536;47.474;19.056;2023-05-10T03:22:41;100665.59;;;11.04;77.97
58769;BME280;44536;47.474;19.056;2023-05-10T03:25:46;100668.13;;;11.05;77.61
58769;BME280;44536;47.474;19.056;2023-05-10T03:28:51;100661.84;;;10.82;78.58
58769;BME280;44536;47.474;19.056;2023-05-10T03:31:54;100670.78;;;10.81;78.87
58769;BME280;44536;47.474;19.056;2023-05-10T03:34:57;100664.81;;;10.90;78.27
58769;BME280;44536;47.474;19.056;2023-05-10T03:38:00;100665.03;;;10.87;78.90
58769;BME280;44536;47.474;19.056;2023-05-10T03:41:02;100666.03;;;10.98;79.07
58769;BME280;44536;47.474;19.056;2023-05-10T03:44:05;100664.34;;;10.97;78.38
58769;BME280;44536;47.474;19.056;2023-05-10T03:47:07;100669.72;;;11.08;76.94
58769;BME280;44536;47.474;19.056;2023-05-10T03:50:10;100664.44;;;10.95;77.39
58769;BME280;44536;47.474;19.056;2023-05-10T03:53:12;100668.47;;;11.01;77.08
58769;BME280;44536;47.474;19.056;2023-05-10T03:56:15;100666.88;;;10.98;77.02
58769;BME280;44536;47.474;19.056;2023-05-10T03:59:17;100668.75;;;11.09;77.43
58769;BME280;44536;47.474;19.056;2023-05-10T04:02:19;100668.00;;;11.07;76.65
58769;BME280;44536;47.474;19.056;2023-05-10T04:05:22;100664.50;;;11.06;76.92
58769;BME280;44536;47.474;19.056;2023-05-10T04:08:25;100672.34;;;11.08;77.00
58769;BME280;44536;47.474;19.056;2023-05-10T04:11:28;100669.78;;;11.19;76.71
58769;BME280;44536;47.474;19.056;2023-05-10T04:14:30;100668.59;;;11.23;76.06
58769;BME280;44536;47.474;19.056;2023-05-10T04:17:32;100663.91;;;11.26;75.91
58769;BME280;44536;47.474;19.056;2023-05-10T04:20:35;100663.28;;;11.23;75.46
58769;BME280;44536;47.474;19.056;2023-05-10T04:23:37;100670.44;;;11.10;76.45
58769;BME280;44536;47.474;19.056;2023-05-10T04:26:40;100670.00;;;11.16;76.66
58769;BME280;44536;47.474;19.056;2023-05-10T04:29:42;100675.13;;;11.06;76.49
58769;BME280;44536;47.474;19.056;2023-05-10T04:32:44;100668.47;;;11.01;76.84
58769;BME280;44536;47.474;19.056;2023-05-10T04:35:47;100675.16;;;10.93;77.04
58769;BME280;44536;47.474;19.056;2023-05-10T04:38:49;100668.13;;;11.05;77.01
58769;BME280;44536;47.474;19.056;2023-05-10T04:41:52;100663.56;;;11.07;76.78
58769;BME280;44536;47.474;19.056;2023-05-10T04:44:54;100675.09;;;11.19;76.69
58769;BME280;44536;47.474;19.056;2023-05-10T04:47:56;100671.31;;;11.34;76.03
58769;BME280;44536;47.474;19.056;2023-05-10T04:50:59;100674.13;;;11.55;75.45
58769;BME280;44536;47.474;19.056;2023-05-10T04:54:01;100669.56;;;11.57;75.20
58769;BME280;44536;47.474;19.056;2023-05-10T04:57:07;100675.88;;;11.67;74.69
58769;BME280;44536;47.474;19.056;2023-05-10T05:00:10;100674.87;;;11.81;73.44
58769;BME280;44536;47.474;19.056;2023-05-10T05:03:13;100673.78;;;11.83;72.83
58769;BME280;44536;47.474;19.056;2023-05-10T05:06:15;100679.59;;;12.00;72.62
58769;BME280;44536;47.474;19.056;2023-05-10T05:09:24;100683.00;;;12.13;71.90
58769;BME280;44536;47.474;19.056;2023-05-10T05:12:26;100677.00;;;12.33;71.54
58769;BME280;44536;47.474;19.056;2023-05-10T05:15:28;100672.91;;;12.40;70.08
58769;BME280;44536;47.474;19.056;2023-05-10T05:18:32;100684.13;;;12.33;71.29
58769;BME280;44536;47.474;19.056;2023-05-10T05:21:35;100682.78;;;12.83;68.19
58769;BME280;44536;47.474;19.056;2023-05-10T05:24:38;100678.00;;;13.20;67.50
58769;BME280;44536;47.474;19.056;2023-05-10T05:27:40;100687.13;;;13.38;65.96
58769;BME280;44536;47.474;19.056;2023-05-10T05:30:43;100684.94;;;13.64;65.10
58769;BME280;44536;47.474;19.056;2023-05-10T05:33:46;100691.69;;;14.00;63.70
58769;BME280;44536;47.474;19.056;2023-05-10T05:36:49;100690.31;;;13.85;64.50
58769;BME280;44536;47.474;19.056;2023-05-10T05:39:51;100691.00;;;14.08;64.28
58769;BME280;44536;47.474;19.056;2023-05-10T05:42:54;100699.72;;;15.01;60.79
58769;BME280;44536;47.474;19.056;2023-05-10T05:45:56;100694.50;;;14.90;59.87
58769;BME280;44536;47.474;19.056;2023-05-10T05:49:04;100704.53;;;15.07;59.79
58769;BME280;44536;47.474;19.056;2023-05-10T05:52:06;100710.34;;;16.93;54.27
58769;BME280;44536;47.474;19.056;2023-05-10T05:55:10;100702.66;;;19.16;47.06
58769;BME280;44536;47.474;19.056;2023-05-10T05:58:12;100702.25;;;19.53;46.14
58769;BME280;44536;47.474;19.056;2023-05-10T06:01:15;100707.16;;;20.78;42.47
58769;BME280;44536;47.474;19.056;2023-05-10T06:04:17;100714.59;;;21.07;41.20
58769;BME280;44536;47.474;19.056;2023-05-10T06:07:20;100707.69;;;21.43;40.55
58769;BME280;44536;47.474;19.056;2023-05-10T06:10:23;100702.41;;;23.64;36.50
58769;BME280;44536;47.474;19.056;2023-05-10T06:13:27;100707.53;;;24.02;35.24
58769;BME280;44536;47.474;19.056;2023-05-10T06:16:47;100711.66;;;24.47;34.28
58769;BME280;44536;47.474;19.056;2023-05-10T06:19:56;100713.44;;;21.63;39.17
58769;BME280;44536;47.474;19.056;2023-05-10T06:22:58;100712.53;;;23.41;36.68
58769;BME280;44536;47.474;19.056;2023-05-10T06:26:01;100714.44;;;22.60;36.89
58769;BME280;44536;47.474;19.056;2023-05-10T06:29:03;100705.94;;;22.93;36.37
58769;BME280;44536;47.474;19.056;2023-05-10T06:32:07;100716.84;;;22.55;38.36
58769;BME280;44536;47.474;19.056;2023-05-10T06:35:11;100719.53;;;23.93;34.59
58769;BME280;44536;47.474;19.056;2023-05-10T06:38:13;100713.66;;;24.10;34.48
58769;BME280;44536;47.474;19.056;2023-05-10T06:41:19;100730.97;;;20.58;40.38
58769;BME280;44536;47.474;19.056;2023-05-10T06:44:24;100724.63;;;19.62;42.92
58769;BME280;44536;47.474;19.056;2023-05-10T06:47:27;100717.69;;;18.33;46.86
58769;BME280;44536;47.474;19.056;2023-05-10T06:50:30;100718.16;;;16.76;50.63
58769;BME280;44536;47.474;19.056;2023-05-10T06:57:40;100721.91;;;15.61;54.81
58769;BME280;44536;47.474;19.056;2023-05-10T07:00:49;100714.16;;;15.97;55.54
58769;BME280;44536;47.474;19.056;2023-05-10T07:03:59;100708.66;;;20.09;44.90
58769;BME280;44536;47.474;19.056;2023-05-10T07:07:06;100699.66;;;21.81;41.36
58769;BME280;44536;47.474;19.056;2023-05-10T07:14:34;100710.34;;;23.66;36.48
58769;BME280;44536;47.474;19.056;2023-05-10T07:17:37;100714.44;;;21.08;41.34
58769;BME280;44536;47.474;19.056;2023-05-10T07:20:41;100706.03;;;18.16;48.78
58769;BME280;44536;47.474;19.056;2023-05-10T07:23:44;100710.78;;;18.30;49.21
58769;BME280;44536;47.474;19.056;2023-05-10T07:26:46;100706.22;;;17.79;50.75
58769;BME280;44536;47.474;19.056;2023-05-10T07:29:48;100700.38;;;17.12;52.24
58769;BME280;44536;47.474;19.056;2023-05-10T07:32:51;100696.78;;;18.70;47.55
58769;BME280;44536;47.474;19.056;2023-05-10T07:35:53;100707.50;;;17.39;49.58
58769;BME280;44536;47.474;19.056;2023-05-10T07:38:55;100703.78;;;16.77;52.26
58769;BME280;44536;47.474;19.056;2023-05-10T07:41:59;100692.62;;;17.09;51.48
58769;BME280;44536;47.474;19.056;2023-05-10T07:45:02;100694.31;;;17.28;49.87
58769;BME280;44536;47.474;19.056;2023-05-10T07:48:04;100697.38;;;16.88;51.29
58769;BME280;44536;47.474;19.056;2023-05-10T07:51:06;100696.91;;;16.18;53.91
58769;BME280;44536;47.474;19.056;2023-05-10T07:54:11;100693.34;;;16.37;53.88
58769;BME280;44536;47.474;19.056;2023-05-10T07:57:15;100692.25;;;17.22;52.18
58769;BME280;44536;47.474;19.056;2023-05-10T08:00:20;100683.91;;;17.43;52.16
58769;BME280;44536;47.474;19.056;2023-05-10T08:03:23;100708.19;;;17.41;51.69
58769;BME280;44536;47.474;19.056;2023-05-10T08:06:25;100701.37;;;18.26;48.99
58769;BME280;44536;47.474;19.056;2023-05-10T08:09:30;100692.72;;;17.71;50.19
58769;BME280;44536;47.474;19.056;2023-05-10T08:12:32;100701.59;;;17.36;51.68
58769;BME280;44536;47.474;19.056;2023-05-10T08:15:35;100705.50;;;16.69;53.17
58769;BME280;44536;47.474;19.056;2023-05-10T08:18:37;100699.28;;;16.78;52.93
58769;BME280;44536;47.474;19.056;2023-05-10T08:21:40;100694.72;;;16.88;53.19
58769;BME280;44536;47.474;19.056;2023-05-10T08:24:46;100698.06;;;17.17;53.10
58769;BME280;44536;47.474;19.056;2023-05-10T08:27:49;100697.75;;;17.20;50.26
58769;BME280;44536;47.474;19.056;2023-05-10T08:30:52;100692.56;;;16.64;52.11
58769;BME280;44536;47.474;19.056;2023-05-10T08:33:55;100690.72;;;16.65;53.30
58769;BME280;44536;47.474;19.056;2023-05-10T08:36:57;100700.38;;;16.48;52.97
58769;BME280;44536;47.474;19.056;2023-05-10T08:40:00;100691.81;;;16.35;53.87
58769;BME280;44536;47.474;19.056;2023-05-10T08:43:08;100690.63;;;16.57;53.14
58769;BME280;44536;47.474;19.056;2023-05-10T08:46:11;100683.25;;;16.96;51.26
58769;BME280;44536;47.474;19.056;2023-05-10T08:49:17;100694.72;;;16.88;52.04
58769;BME280;44536;47.474;19.056;2023-05-10T08:52:24;100690.41;;;17.23;51.43
58769;BME280;44536;47.474;19.056;2023-05-10T08:55:27;100687.87;;;17.03;51.24
58769;BME280;44536;47.474;19.056;2023-05-10T08:58:31;100688.22;;;17.53;51.69
58769;BME280;44536;47.474;19.056;2023-05-10T09:01:35;100686.72;;;18.20;49.18
58769;BME280;44536;47.474;19.056;2023-05-10T09:04:38;100681.69;;;18.77;47.06
58769;BME280;44536;47.474;19.056;2023-05-10T09:07:41;100688.16;;;18.33;47.53
58769;BME280;44536;47.474;19.056;2023-05-10T09:10:44;100685.47;;;19.01;45.67
58769;BME280;44536;47.474;19.056;2023-05-10T09:13:50;100691.22;;;19.06;45.76
58769;BME280;44536;47.474;19.056;2023-05-10T09:16:54;100694.16;;;18.52;46.92
58769;BME280;44536;47.474;19.056;2023-05-10T09:20:02;100688.91;;;18.69;46.11
58769;BME280;44536;47.474;19.056;2023-05-10T09:23:06;100685.97;;;19.63;45.24
58769;BME280;44536;47.474;19.056;2023-05-10T09:26:09;100687.97;;;20.01;42.21
58769;BME280;44536;47.474;19.056;2023-05-10T09:29:11;100684.75;;;19.81;42.47
58769;BME280;44536;47.474;19.056;2023-05-10T09:32:16;100683.25;;;20.03;42.48
58769;BME280;44536;47.474;19.056;2023-05-10T09:35:20;100674.09;;;22.29;38.90
58769;BME280;44536;47.474;19.056;2023-05-10T09:38:23;100677.59;;;22.89;36.79
58769;BME280;44536;47.474;19.056;2023-05-10T09:41:27;100670.25;;;21.40;39.42
58769;BME280;44536;47.474;19.056;2023-05-10T09:44:31;100672.81;;;20.08;41.42
58769;BME280;44536;47.474;19.056;2023-05-10T09:47:34;100662.41;;;18.82;44.77
58769;BME280;44536;47.474;19.056;2023-05-10T09:50:37;100662.06;;;19.76;42.54
58769;BME280;44536;47.474;19.056;2023-05-10T09:53:39;100668.50;;;19.00;43.70
58769;BME280;44536;47.474;19.056;2023-05-10T09:56:42;100678.22;;;19.60;43.21
58769;BME280;44536;47.474;19.056;2023-05-10T09:59:45;100666.38;;;19.28;43.55
58769;BME280;44536;47.474;19.056;2023-05-10T10:02:54;100664.22;;;21.38;40.26
58769;BME280;44536;47.474;19.056;2023-05-10T10:05:57;100664.56;;;22.19;38.15
58769;BME280;44536;47.474;19.056;2023-05-10T10:08:59;100652.62;;;19.96;41.76
58769;BME280;44536;47.474;19.056;2023-05-10T10:12:03;100657.37;;;19.54;43.70
58769;BME280;44536;47.474;19.056;2023-05-10T10:15:08;100650.41;;;19.35;42.89
58769;BME280;44536;47.474;19.056;2023-05-10T10:18:13;100651.69;;;18.22;44.78
58769;BME280;44536;47.474;19.056;2023-05-10T10:21:18;100656.06;;;17.97;46.95
58769;BME280;44536;47.474;19.056;2023-05-10T10:24:20;100650.13;;;18.45;45.51
58769;BME280;44536;47.474;19.056;2023-05-10T10:30:53;100632.81;;;23.01;36.64
58769;BME280;44536;47.474;19.056;2023-05-10T10:34:26;100636.91;;;22.17;36.77
58769;BME280;44536;47.474;19.056;2023-05-10T10:37:44;100629.38;;;23.71;34.12
58769;BME280;44536;47.474;19.056;2023-05-10T10:40:47;100628.97;;;22.59;36.53
58769;BME280;44536;47.474;19.056;2023-05-10T10:44:22;100624.53;;;22.88;36.29
58769;BME280;44536;47.474;19.056;2023-05-10T10:47:28;100622.06;;;21.60;36.88
58769;BME280;44536;47.474;19.056;2023-05-10T10:50:43;100626.16;;;21.02;38.59
58769;BME280;44536;47.474;19.056;2023-05-10T10:53:50;100621.97;;;22.80;34.52
58769;BME280;44536;47.474;19.056;2023-05-10T10:57:12;100625.56;;;25.03;31.18
58769;BME280;44536;47.474;19.056;2023-05-10T11:03:21;100607.91;;;22.40;35.08
58769;BME280;44536;47.474;19.056;2023-05-10T11:06:33;100600.59;;;21.67;39.14
58769;BME280;44536;47.474;19.056;2023-05-10T11:09:39;100598.59;;;23.29;34.08
58769;BME280;44536;47.474;19.056;2023-05-10T11:13:01;100602.22;;;24.55;30.77
58769;BME280;44536;47.474;19.056;2023-05-10T11:19:17;100591.66;;;24.25;32.00
58769;BME280;44536;47.474;19.056;2023-05-10T11:22:24;100582.66;;;22.98;33.71
58769;BME280;44536;47.474;19.056;2023-05-10T11:25:27;100590.44;;;21.69;35.92
58769;BME280;44536;47.474;19.056;2023-05-10T11:28:30;100583.38;;;21.30;35.93
58769;BME280;44536;47.474;19.056;2023-05-10T11:31:45;100587.09;;;22.85;33.97
58769;BME280;44536;47.474;19.056;2023-05-10T11:34:50;100578.56;;;24.35;31.54
58769;BME280;44536;47.474;19.056;2023-05-10T11:37:55;100571.56;;;22.57;33.64
58769;BME280;44536;47.474;19.056;2023-05-10T11:40:58;100580.50;;;21.99;35.57
58769;BME280;44536;47.474;19.056;2023-05-10T11:44:01;100559.00;;;21.76;34.53
58769;BME280;44536;47.474;19.056;2023-05-10T11:47:05;100564.62;;;23.27;32.46
58769;BME280;44536;47.474;19.056;2023-05-10T11:50:07;100571.41;;;24.69;30.59
58769;BME280;44536;47.474;19.056;2023-05-10T11:53:10;100564.81;;;24.37;31.11
58769;BME280;44536;47.474;19.056;2023-05-10T11:56:13;100559.53;;;23.38;32.56
58769;BME280;44536;47.474;19.056;2023-05-10T11:59:16;100557.00;;;22.58;32.17
58769;BME280;44536;47.474;19.056;2023-05-10T12:02:18;100563.00;;;21.80;35.60
58769;BME280;44536;47.474;19.056;2023-05-10T12:05:23;100564.91;;;20.65;37.79
58769;BME280;44536;47.474;19.056;2023-05-10T12:08:27;100564.12;;;20.09;38.54
58769;BME280;44536;47.474;19.056;2023-05-10T12:11:30;100572.56;;;20.37;38.41
58769;BME280;44536;47.474;19.056;2023-05-10T12:14:35;100568.31;;;20.12;36.49
58769;BME280;44536;47.474;19.056;2023-05-10T12:17:38;100575.59;;;20.51;35.01
58769;BME280;44536;47.474;19.056;2023-05-10T12:20:44;100571.16;;;20.89;35.86
58769;BME280;44536;47.474;19.056;2023-05-10T12:24:11;100564.03;;;20.73;36.60
58769;BME280;44536;47.474;19.056;2023-05-10T12:27:32;100566.19;;;19.83;38.41
58769;BME280;44536;47.474;19.056;2023-05-10T12:30:35;100563.38;;;19.28;40.41
58769;BME280;44536;47.474;19.056;2023-05-10T12:33:40;100559.34;;;19.48;40.51
58769;BME280;44536;47.474;19.056;2023-05-10T12:36:50;100554.97;;;19.39;39.85
58769;BME280;44536;47.474;19.056;2023-05-10T12:39:52;100547.09;;;19.13;40.46
58769;BME280;44536;47.474;19.056;2023-05-10T12:42:55;100550.44;;;19.31;40.96
58769;BME280;44536;47.474;19.056;2023-05-10T12:45:57;100549.75;;;19.37;40.90
58769;BME280;44536;47.474;19.056;2023-05-10T12:49:00;100545.06;;;19.64;40.32
58769;BME280;44536;47.474;19.056;2023-05-10T12:52:12;100543.25;;;20.11;39.55
58769;BME280;44536;47.474;19.056;2023-05-10T12:55:19;100535.41;;;20.33;37.77
58769;BME280;44536;47.474;19.056;2023-05-10T12:58:21;100540.53;;;20.20;37.76
58769;BME280;44536;47.474;19.056;2023-05-10T13:01:37;100534.72;;;20.31;37.98
58769;BME280;44536;47.474;19.056;2023-05-10T13:04:39;100521.13;;;20.86;36.86
58769;BME280;44536;47.474;19.056;2023-05-10T13:07:42;100524.00;;;20.85;36.85
58769;BME280;44536;47.474;19.056;2023-05-10T13:10:45;100515.31;;;21.20;35.89
58769;BME280;44536;47.474;19.056;2023-05-10T13:13:48;100505.09;;;21.68;35.25
58769;BME280;44536;47.474;19.056;2023-05-10T13:16:50;100511.41;;;21.90;34.88
58769;BME280;44536;47.474;19.056;2023-05-10T13:19:53;100510.97;;;22.01;34.81
58769;BME280;44536;47.474;19.056;2023-05-10T13:22:56;100507.56;;;21.25;35.16
58769;BME280;44536;47.474;19.056;2023-05-10T13:25:58;100493.59;;;20.99;36.31
58769;BME280;44536;47.474;19.056;2023-05-10T13:29:00;100500.34;;;21.18;35.58
58769;BME280;44536;47.474;19.056;2023-05-10T13:32:04;100484.31;;;21.39;35.51
58769;BME280;44536;47.474;19.056;2023-05-10T13:35:07;100486.12;;;22.05;34.71
58769;BME280;44536;47.474;19.056;2023-05-10T13:38:10;100483.69;;;22.25;33.40
58769;BME280;44536;47.474;19.056;2023-05-10T13:41:12;100487.38;;;21.36;34.32
58769;BME280;44536;47.474;19.056;2023-05-10T13:44:15;100486.31;;;20.23;35.22
58769;BME280;44536;47.474;19.056;2023-05-10T13:47:17;100482.44;;;19.86;35.48
58769;BME280;44536;47.474;19.056;2023-05-10T13:50:21;100476.22;;;19.77;36.25
58769;BME280;44536;47.474;19.056;2023-05-10T13:53:24;100479.69;;;20.02;35.21
58769;BME280;44536;47.474;19.056;2023-05-10T13:56:29;100469.62;;;20.58;35.39
58769;BME280;44536;47.474;19.056;2023-05-10T13:59:31;100464.94;;;21.21;34.75
58769;BME280;44536;47.474;19.056;2023-05-10T14:02:34;100459.19;;;21.38;34.50
58769;BME280;44536;47.474;19.056;2023-05-10T14:05:37;100451.22;;;21.30;34.51
58769;BME280;44536;47.474;19.056;2023-05-10T14:08:40;100455.66;;;21.23;34.85
58769;BME280;44536;47.474;19.056;2023-05-10T14:11:42;100455.06;;;20.90;35.24
58769;BME280;44536;47.474;19.056;2023-05-10T14:14:45;100444.19;;;20.30;34.00
58769;BME280;44536;47.474;19.056;2023-05-10T14:17:48;100445.16;;;20.14;35.38
58769;BME280;44536;47.474;19.056;2023-05-10T14:20:51;100444.91;;;19.93;35.52
58769;BME280;44536;47.474;19.056;2023-05-10T14:23:53;100441.25;;;20.16;35.27
58769;BME280;44536;47.474;19.056;2023-05-10T14:26:56;100438.62;;;20.39;36.16
58769;BME280;44536;47.474;19.056;2023-05-10T14:29:58;100452.16;;;19.84;33.63
58769;BME280;44536;47.474;19.056;2023-05-10T14:33:02;100444.56;;;19.24;34.52
58769;BME280;44536;47.474;19.056;2023-05-10T14:36:06;100447.63;;;19.21;35.33
58769;BME280;44536;47.474;19.056;2023-05-10T14:39:08;100448.31;;;19.15;35.96
58769;BME280;44536;47.474;19.056;2023-05-10T14:42:12;100443.69;;;19.48;35.69
58769;BME280;44536;47.474;19.056;2023-05-10T14:45:14;100440.63;;;19.75;35.24
58769;BME280;44536;47.474;19.056;2023-05-10T14:48:21;100440.53;;;19.92;35.44
58769;BME280;44536;47.474;19.056;2023-05-10T14:51:23;100436.53;;;20.19;35.24
58769;BME280;44536;47.474;19.056;2023-05-10T14:54:25;100435.62;;;20.57;34.82
58769;BME280;44536;47.474;19.056;2023-05-10T14:57:28;100437.06;;;20.45;34.35
58769;BME280;44536;47.474;19.056;2023-05-10T15:00:34;100436.94;;;19.68;36.12
58769;BME280;44536;47.474;19.056;2023-05-10T15:03:37;100441.66;;;19.50;36.85
58769;BME280;44536;47.474;19.056;2023-05-10T15:06:40;100453.97;;;19.36;37.93
58769;BME280;44536;47.474;19.056;2023-05-10T15:09:44;100437.06;;;19.11;38.43
58769;BME280;44536;47.474;19.056;2023-05-10T15:12:46;100444.59;;;18.75;37.83
58769;BME280;44536;47.474;19.056;2023-05-10T15:15:49;100450.00;;;18.67;38.25
58769;BME280;44536;47.474;19.056;2023-05-10T15:18:51;100451.59;;;18.36;38.04
58769;BME280;44536;47.474;19.056;2023-05-10T15:21:53;100439.81;;;18.20;38.44
58769;BME280;44536;47.474;19.056;2023-05-10T15:24:56;100441.34;;;18.31;38.23
58769;BME280;44536;47.474;19.056;2023-05-10T15:27:59;100436.66;;;18.33;38.17
58769;BME280;44536;47.474;19.056;2023-05-10T15:31:01;100440.34;;;18.40;37.45
58769;BME280;44536;47.474;19.056;2023-05-10T15:34:03;100440.37;;;18.48;37.10
58769;BME280;44536;47.474;19.056;2023-05-10T15:37:06;100437.03;;;18.55;36.50
58769;BME280;44536;47.474;19.056;2023-05-10T15:40:08;100431.19;;;19.00;36.23
58769;BME280;44536;47.474;19.056;2023-05-10T15:43:11;100441.59;;;19.11;35.89
58769;BME280;44536;47.474;19.056;2023-05-10T15:46:13;100434.53;;;19.10;35.67
58769;BME280;44536;47.474;19.056;2023-05-10T15:49:16;100423.44;;;19.13;35.32
58769;BME280;44536;47.474;19.056;2023-05-10T15:52:20;100424.28;;;18.97;36.08
58769;BME280;44536;47.474;19.056;2023-05-10T15:55:22;100435.41;;;18.70;36.50
58769;BME280;44536;47.474;19.056;2023-05-10T15:58:25;100421.56;;;18.48;36.70
58769;BME280;44536;47.474;19.056;2023-05-10T16:01:27;100428.78;;;18.48;37.39
58769;BME280;44536;47.474;19.056;2023-05-10T16:04:30;100422.72;;;18.38;37.93
58769;BME280;44536;47.474;19.056;2023-05-10T16:07:33;100433.16;;;18.49;38.33
58769;BME280;44536;47.474;19.056;2023-05-10T16:10:35;100431.47;;;18.40;38.60
58769;BME280;44536;47.474;19.056;2023-05-10T16:13:39;100432.28;;;18.16;38.93
58769;BME280;44536;47.474;19.056;2023-05-10T16:16:41;100436.09;;;18.05;38.87
58769;BME280;44536;47.474;19.056;2023-05-10T16:19:44;100426.38;;;18.04;39.10
58769;BME280;44536;47.474;19.056;2023-05-10T16:22:48;100434.06;;;17.99;39.34
58769;BME280;44536;47.474;19.056;2023-05-10T16:25:50;100421.34;;;18.09;39.25
58769;BME280;44536;47.474;19.056;2023-05-10T16:28:53;100429.75;;;18.14;39.41